createdAt,value
2019-02-17T00:00:13.004Z,99.90
2019-02-17T00:02:41.603Z,99.90
2019-02-17T00:05:10.246Z,99.90
2019-02-17T00:07:38.844Z,99.90
2019-02-17T00:10:07.544Z,99.90
2019-02-17T00:12:36.149Z,99.90
2019-02-17T00:15:07.348Z,99.90
2019-02-17T00:17:35.951Z,99.90
2019-02-17T00:20:07.970Z,99.90
2019-02-17T00:22:35.887Z,99.90
2019-02-17T00:25:05.783Z,99.90
2019-02-17T00:27:34.468Z,99.90
2019-02-17T00:30:03.377Z,99.90
2019-02-17T00:32:32.045Z,99.90
2019-02-17T00:35:00.613Z,99.90
2019-02-17T00:37:29.176Z,99.90
2019-02-17T00:39:57.776Z,99.90
2019-02-17T00:42:26.341Z,99.90
2019-02-17T00:44:54.943Z,99.90
2019-02-17T00:47:23.576Z,99.90
2019-02-17T00:49:52.180Z,99.90
2019-02-17T00:52:20.829Z,99.90
2019-02-17T00:54:49.427Z,99.90
2019-02-17T00:57:17.989Z,99.90
2019-02-17T00:59:46.590Z,99.90
2019-02-17T01:02:15.153Z,99.90
2019-02-17T01:04:43.755Z,99.90
2019-02-17T01:07:12.314Z,99.90
2019-02-17T01:09:40.921Z,99.90
2019-02-17T01:12:09.479Z,99.90
2019-02-17T01:14:38.084Z,99.90
2019-02-17T01:17:06.649Z,99.90
2019-02-17T01:19:35.256Z,99.90
2019-02-17T01:22:03.813Z,99.90
2019-02-17T01:24:32.408Z,99.90
2019-02-17T01:27:00.972Z,99.90
2019-02-17T01:29:29.650Z,99.90
2019-02-17T01:31:58.200Z,99.90
2019-02-17T01:34:26.799Z,99.90
2019-02-17T01:36:55.355Z,99.90
2019-02-17T01:39:23.959Z,99.90
2019-02-17T01:41:52.518Z,99.90
2019-02-17T01:44:21.123Z,99.90
2019-02-17T01:46:49.682Z,99.90
2019-02-17T01:49:18.288Z,99.90
2019-02-17T01:51:46.847Z,99.90
2019-02-17T01:54:15.706Z,99.90
2019-02-17T01:56:44.269Z,99.90
2019-02-17T01:59:12.863Z,99.90
2019-02-17T02:01:41.427Z,99.90
2019-02-17T02:04:10.028Z,99.90
2019-02-17T02:06:38.585Z,99.90
2019-02-17T02:09:09.301Z,99.90
2019-02-17T02:11:37.976Z,99.90
2019-02-17T02:14:06.615Z,99.90
2019-02-17T02:16:35.134Z,99.90
2019-02-17T02:19:03.740Z,99.90
2019-02-17T02:21:32.289Z,99.90
2019-02-17T02:24:00.843Z,99.90
2019-02-17T02:26:29.444Z,99.90
2019-02-17T02:28:58.000Z,99.90
2019-02-17T02:31:26.596Z,99.90
2019-02-17T02:33:55.167Z,99.90
2019-02-17T02:36:23.778Z,99.90
2019-02-17T02:38:52.332Z,99.90
2019-02-17T02:41:20.932Z,99.90
2019-02-17T02:43:49.483Z,99.90
2019-02-17T02:46:18.148Z,99.90
2019-02-17T02:48:46.712Z,99.90
2019-02-17T02:51:15.314Z,99.90
2019-02-17T02:53:43.869Z,99.90
2019-02-17T02:56:12.476Z,99.90
2019-02-17T02:58:41.039Z,99.90
2019-02-17T03:01:10.817Z,99.90
2019-02-17T03:03:39.375Z,99.90
2019-02-17T03:06:12.521Z,99.90
2019-02-17T03:08:41.071Z,99.90
2019-02-17T03:11:09.669Z,99.90
2019-02-17T03:13:38.237Z,99.90
2019-02-17T03:16:06.838Z,99.90
2019-02-17T03:18:35.389Z,99.90
2019-02-17T03:21:03.988Z,99.90
2019-02-17T03:23:32.544Z,99.90
2019-02-17T03:26:01.683Z,99.90
2019-02-17T03:28:30.402Z,99.90
2019-02-17T03:30:59.137Z,99.90
2019-02-17T03:33:27.692Z,99.90
2019-02-17T03:35:56.292Z,99.90
2019-02-17T03:38:24.852Z,99.90
2019-02-17T03:40:53.453Z,99.90
2019-02-17T03:43:22.079Z,99.90
2019-02-17T03:45:50.677Z,99.90
2019-02-17T03:48:19.322Z,99.90
2019-02-17T03:50:47.915Z,99.90
2019-02-17T03:53:16.470Z,99.90
2019-02-17T03:55:45.072Z,99.90
2019-02-17T03:58:13.631Z,99.90
2019-02-17T04:00:42.260Z,99.90
2019-02-17T04:03:10.817Z,99.90
2019-02-17T04:05:39.486Z,99.90
2019-02-17T04:08:08.081Z,99.90
2019-02-17T04:10:36.691Z,99.90
2019-02-17T04:13:05.287Z,99.90
2019-02-17T04:15:33.839Z,99.90
2019-02-17T04:18:02.521Z,99.90
2019-02-17T04:20:31.081Z,99.90
2019-02-17T04:22:59.672Z,99.90
2019-02-17T04:25:28.234Z,99.90
2019-02-17T04:27:56.828Z,99.90
2019-02-17T04:30:29.240Z,99.90
2019-02-17T04:32:55.644Z,99.90
2019-02-17T04:35:24.240Z,99.90
2019-02-17T04:37:52.791Z,99.90
2019-02-17T04:40:21.396Z,99.90
2019-02-17T04:42:49.936Z,99.90
2019-02-17T04:45:18.537Z,99.90
2019-02-17T04:47:47.092Z,99.90
2019-02-17T04:50:15.693Z,99.90
2019-02-17T04:52:44.239Z,99.90
2019-02-17T04:55:13.029Z,99.90
2019-02-17T04:57:41.520Z,99.90
2019-02-17T05:00:10.458Z,99.90
2019-02-17T05:02:39.080Z,99.90
2019-02-17T05:05:07.811Z,99.90
2019-02-17T05:07:36.365Z,99.90
2019-02-17T05:10:05.397Z,99.90
2019-02-17T05:12:33.964Z,99.90
2019-02-17T05:15:02.565Z,99.90
2019-02-17T05:17:31.115Z,99.90
2019-02-17T05:19:59.716Z,99.90
2019-02-17T05:22:28.272Z,99.90
2019-02-17T05:24:56.865Z,99.90
2019-02-17T05:27:25.416Z,99.90
2019-02-17T05:29:54.011Z,99.90
2019-02-17T05:32:22.571Z,99.90
2019-02-17T05:34:51.164Z,99.90
2019-02-17T05:37:19.736Z,99.90
2019-02-17T05:39:48.332Z,99.90
2019-02-17T05:42:16.884Z,99.90
2019-02-17T05:44:45.487Z,99.90
2019-02-17T05:47:14.032Z,99.90
2019-02-17T05:49:42.634Z,99.90
2019-02-17T05:52:11.185Z,99.90
2019-02-17T05:54:39.802Z,99.90
2019-02-17T05:57:08.354Z,99.90
2019-02-17T05:59:36.951Z,99.90
2019-02-17T06:02:05.501Z,99.90
2019-02-17T06:04:34.092Z,99.90
2019-02-17T06:07:02.657Z,99.90
2019-02-17T06:09:31.261Z,99.90
2019-02-17T06:11:59.821Z,99.90
2019-02-17T06:14:28.423Z,99.90
2019-02-17T06:16:56.972Z,99.90
2019-02-17T06:19:25.573Z,99.90
2019-02-17T06:21:54.135Z,99.90
2019-02-17T06:24:22.720Z,99.90
2019-02-17T06:26:51.273Z,99.90
2019-02-17T06:29:19.828Z,99.90
2019-02-17T06:31:48.423Z,99.90
2019-02-17T06:34:16.984Z,99.90
2019-02-17T06:36:45.581Z,99.90
2019-02-17T06:39:14.137Z,99.90
2019-02-17T06:41:42.732Z,99.90
2019-02-17T06:44:11.292Z,99.90
2019-02-17T06:46:41.538Z,99.90
2019-02-17T06:49:10.181Z,99.90
2019-02-17T06:51:38.777Z,99.90
2019-02-17T06:54:07.327Z,99.90
2019-02-17T06:56:37.563Z,99.90
2019-02-17T06:59:06.117Z,99.90
2019-02-17T07:01:34.713Z,99.90
2019-02-17T07:04:03.299Z,99.90
2019-02-17T07:06:33.509Z,99.90
2019-02-17T07:09:02.052Z,99.90
2019-02-17T07:11:30.685Z,99.90
2019-02-17T07:13:59.204Z,99.90
2019-02-17T07:16:27.804Z,99.90
2019-02-17T07:18:56.410Z,99.90
2019-02-17T07:21:24.996Z,99.90
2019-02-17T07:23:53.548Z,99.90
2019-02-17T07:26:22.148Z,99.90
2019-02-17T07:28:50.712Z,99.90
2019-02-17T07:31:19.307Z,99.90
2019-02-17T07:33:47.866Z,99.90
2019-02-17T07:36:16.460Z,99.90
2019-02-17T07:38:45.012Z,99.90
2019-02-17T07:41:13.613Z,99.90
2019-02-17T07:43:42.164Z,99.90
2019-02-17T07:46:10.764Z,99.90
2019-02-17T07:48:39.329Z,99.90
2019-02-17T07:51:07.926Z,99.90
2019-02-17T07:53:36.493Z,99.90
2019-02-17T07:56:05.160Z,99.90
2019-02-17T07:58:33.711Z,99.90
2019-02-17T08:01:02.685Z,99.90
2019-02-17T08:03:31.241Z,99.90
2019-02-17T08:05:59.856Z,99.90
2019-02-17T08:08:28.414Z,99.90
2019-02-17T08:11:03.681Z,99.90
2019-02-17T08:13:27.224Z,99.90
2019-02-17T08:15:55.824Z,99.90
2019-02-17T08:18:24.396Z,99.90
2019-02-17T08:20:53.013Z,99.90
2019-02-17T08:23:21.571Z,99.90
2019-02-17T08:25:50.138Z,99.90
2019-02-17T08:28:18.750Z,99.90
2019-02-17T08:30:47.380Z,99.90
2019-02-17T08:33:15.991Z,99.90
2019-02-17T08:35:44.570Z,99.90
2019-02-17T08:38:13.172Z,99.90
2019-02-17T08:40:41.742Z,99.90
2019-02-17T08:43:10.346Z,99.90
2019-02-17T08:45:38.973Z,99.90
2019-02-17T08:48:07.595Z,99.90
2019-02-17T08:50:36.226Z,99.90
2019-02-17T08:53:04.901Z,99.90
2019-02-17T08:55:33.455Z,99.90
2019-02-17T08:58:02.524Z,99.90
2019-02-17T09:00:31.077Z,99.90
2019-02-17T09:02:59.680Z,99.90
2019-02-17T09:05:28.241Z,99.90
2019-02-17T09:07:56.843Z,99.90
2019-02-17T09:10:25.409Z,99.90
2019-02-17T09:12:54.015Z,99.90
2019-02-17T09:15:22.572Z,99.90
2019-02-17T09:17:51.200Z,99.90
2019-02-17T09:20:19.816Z,99.90
2019-02-17T09:22:48.415Z,99.90
2019-02-17T09:25:16.973Z,99.90
2019-02-17T09:27:45.585Z,99.90
2019-02-17T09:30:16.785Z,99.90
2019-02-17T09:32:45.459Z,99.90
2019-02-17T09:35:14.197Z,99.90
2019-02-17T09:37:42.788Z,99.90
2019-02-17T09:40:12.483Z,99.90
2019-02-17T09:42:41.177Z,99.90
2019-02-17T09:45:16.539Z,99.90
2019-02-17T09:47:45.159Z,99.90
2019-02-17T09:50:14.468Z,99.90
2019-02-17T09:52:43.196Z,99.90
2019-02-17T09:55:11.858Z,99.90
2019-02-17T09:57:40.565Z,99.90
2019-02-17T10:00:11.665Z,99.90
2019-02-17T10:02:40.289Z,99.90
2019-02-17T10:05:10.485Z,99.90
2019-02-17T10:07:39.110Z,99.90
2019-02-17T10:10:13.065Z,99.90
2019-02-17T10:12:41.693Z,99.90
2019-02-17T10:15:12.283Z,99.90
2019-02-17T10:17:40.979Z,99.90
2019-02-17T10:20:12.132Z,99.90
2019-02-17T10:22:40.842Z,99.90
2019-02-17T10:25:09.907Z,99.90
2019-02-17T10:27:38.529Z,99.90
2019-02-17T10:30:10.154Z,99.90
2019-02-17T10:32:39.323Z,99.90
2019-02-17T10:35:08.082Z,99.90
2019-02-17T10:37:36.673Z,99.90
2019-02-17T10:40:09.472Z,99.90
2019-02-17T10:42:38.101Z,99.90
2019-02-17T10:45:07.621Z,99.90
2019-02-17T10:47:36.300Z,99.90
2019-02-17T10:50:07.693Z,99.90
2019-02-17T10:52:36.293Z,99.90
2019-02-17T10:55:06.893Z,99.90
2019-02-17T10:57:35.492Z,99.90
2019-02-17T11:00:08.792Z,99.90
2019-02-17T11:02:46.655Z,99.90
2019-02-17T11:05:09.438Z,99.90
2019-02-17T11:07:37.992Z,99.90
2019-02-17T11:10:10.929Z,99.90
2019-02-17T11:12:39.546Z,99.90
2019-02-17T11:15:21.590Z,99.90
2019-02-17T11:17:50.195Z,99.90
2019-02-17T11:20:18.854Z,99.90
2019-02-17T11:22:47.403Z,99.90
2019-02-17T11:25:16.104Z,99.90
2019-02-17T11:27:44.659Z,99.90
2019-02-17T11:30:20.736Z,99.90
2019-02-17T11:32:57.558Z,99.90
2019-02-17T11:35:19.710Z,99.90
2019-02-17T11:37:48.248Z,99.90
2019-02-17T11:40:16.853Z,99.00
2019-02-17T11:42:45.412Z,97.30
2019-02-17T11:45:18.982Z,97.50
2019-02-17T11:47:47.601Z,97.10
2019-02-17T11:50:16.280Z,95.60
2019-02-17T11:52:44.908Z,94.70
2019-02-17T11:55:15.060Z,93.20
2019-02-17T11:57:43.677Z,90.30
2019-02-17T12:00:17.677Z,90.30
2019-02-17T12:02:46.494Z,87.90
2019-02-17T12:05:15.165Z,87.30
2019-02-17T12:07:43.792Z,84.60
2019-02-17T12:10:12.546Z,85.50
2019-02-17T12:12:41.098Z,86.30
2019-02-17T12:15:12.150Z,84.60
2019-02-17T12:17:40.701Z,84.30
2019-02-17T12:20:19.709Z,83.10
2019-02-17T12:22:49.899Z,81.40
2019-02-17T12:25:20.288Z,80.90
2019-02-17T12:27:50.476Z,81.50
2019-02-17T12:30:19.743Z,79.40
2019-02-17T12:32:48.296Z,77.50
2019-02-17T12:35:16.896Z,75.00
2019-02-17T12:37:47.305Z,73.80
2019-02-17T12:40:15.724Z,73.00
2019-02-17T12:42:44.277Z,71.60
2019-02-17T12:45:17.924Z,71.50
2019-02-17T12:47:44.112Z,70.70
2019-02-17T12:50:12.870Z,70.60
2019-02-17T12:52:47.226Z,70.40
2019-02-17T12:55:11.684Z,69.10
2019-02-17T12:57:40.244Z,69.70
2019-02-17T13:00:15.545Z,70.50
2019-02-17T13:02:44.099Z,71.10
2019-02-17T13:05:12.791Z,72.50
2019-02-17T13:07:42.934Z,72.30
2019-02-17T13:10:12.291Z,71.70
2019-02-17T13:12:40.842Z,70.30
2019-02-17T13:15:14.311Z,69.00
2019-02-17T13:17:42.932Z,67.70
2019-02-17T13:20:13.774Z,66.50
2019-02-17T13:22:42.332Z,65.20
2019-02-17T13:25:15.745Z,63.90
2019-02-17T13:27:44.370Z,65.20
2019-02-17T13:30:23.756Z,65.50
2019-02-17T13:32:52.312Z,64.70
2019-02-17T13:35:20.935Z,65.00
2019-02-17T13:37:49.491Z,66.30
2019-02-17T13:40:18.091Z,66.10
2019-02-17T13:42:47.035Z,65.90
2019-02-17T13:45:16.772Z,65.50
2019-02-17T13:47:45.326Z,66.50
2019-02-17T13:50:15.294Z,66.20
2019-02-17T13:52:43.914Z,64.70
2019-02-17T13:55:12.774Z,65.40
2019-02-17T13:57:41.394Z,64.50
2019-02-17T14:00:15.297Z,64.30
2019-02-17T14:02:43.919Z,61.10
2019-02-17T14:05:12.619Z,61.80
2019-02-17T14:07:41.167Z,62.20
2019-02-17T14:10:11.409Z,63.60
2019-02-17T14:12:40.033Z,64.60
2019-02-17T14:15:13.984Z,64.60
2019-02-17T14:17:42.547Z,63.80
2019-02-17T14:20:11.528Z,65.30
2019-02-17T14:22:40.227Z,64.70
2019-02-17T14:25:11.037Z,64.50
2019-02-17T14:27:40.004Z,64.50
2019-02-17T14:30:14.235Z,63.70
2019-02-17T14:32:43.060Z,64.60
2019-02-17T14:35:12.131Z,64.30
2019-02-17T14:37:40.677Z,63.30
2019-02-17T14:40:11.240Z,63.70
2019-02-17T14:42:39.792Z,63.60
2019-02-17T14:45:11.415Z,64.20
2019-02-17T14:47:40.043Z,63.00
2019-02-17T14:50:09.237Z,63.50
2019-02-17T14:52:37.883Z,62.60
2019-02-17T14:55:13.239Z,63.50
2019-02-17T14:57:41.931Z,64.00
2019-02-17T15:00:15.278Z,64.90
2019-02-17T15:02:44.070Z,65.10
2019-02-17T15:05:12.764Z,64.70
2019-02-17T15:07:41.376Z,64.70
2019-02-17T15:10:11.368Z,65.50
2019-02-17T15:12:39.994Z,66.50
2019-02-17T15:15:10.775Z,66.80
2019-02-17T15:17:39.398Z,64.80
2019-02-17T15:20:18.794Z,65.80
2019-02-17T15:22:47.400Z,66.30
2019-02-17T15:25:16.093Z,66.90
2019-02-17T15:27:44.877Z,67.40
2019-02-17T15:30:17.659Z,67.30
2019-02-17T15:32:45.811Z,67.00
2019-02-17T15:35:14.436Z,67.20
2019-02-17T15:37:43.060Z,67.20
2019-02-17T15:40:13.155Z,63.60
2019-02-17T15:42:43.179Z,64.40
2019-02-17T15:45:13.255Z,64.70
2019-02-17T15:47:41.938Z,65.20
2019-02-17T15:50:11.723Z,67.50
2019-02-17T15:52:40.345Z,66.00
2019-02-17T15:55:11.303Z,65.60
2019-02-17T15:57:39.928Z,65.50
2019-02-17T16:00:16.138Z,65.50
2019-02-17T16:02:44.767Z,65.30
2019-02-17T16:05:13.414Z,66.20
2019-02-17T16:07:42.048Z,66.30
2019-02-17T16:10:15.692Z,67.40
2019-02-17T16:12:44.316Z,68.50
2019-02-17T16:15:23.873Z,68.80
2019-02-17T16:17:52.505Z,70.90
2019-02-17T16:20:21.304Z,73.00
2019-02-17T16:22:49.928Z,76.10
2019-02-17T16:25:18.477Z,80.60
2019-02-17T16:27:47.171Z,85.20
2019-02-17T16:30:17.160Z,87.50
2019-02-17T16:32:45.784Z,91.70
2019-02-17T16:35:14.336Z,94.10
2019-02-17T16:37:42.963Z,96.20
2019-02-17T16:40:13.555Z,99.90
2019-02-17T16:42:42.172Z,99.90
2019-02-17T16:45:12.274Z,99.90
2019-02-17T16:47:40.968Z,99.90
2019-02-17T16:50:12.571Z,99.90
2019-02-17T16:52:41.201Z,99.90
2019-02-17T16:55:10.894Z,99.90
2019-02-17T16:57:39.520Z,99.90
2019-02-17T17:00:17.884Z,99.90
2019-02-17T17:02:46.581Z,99.90
2019-02-17T17:05:15.273Z,99.90
2019-02-17T17:07:43.914Z,99.90
2019-02-17T17:10:12.632Z,99.90
2019-02-17T17:12:41.628Z,99.90
2019-02-17T17:15:10.624Z,99.90
2019-02-17T17:17:39.302Z,99.90
2019-02-17T17:20:10.296Z,99.90
2019-02-17T17:22:38.919Z,99.90
2019-02-17T17:25:09.886Z,99.90
2019-02-17T17:27:38.560Z,99.90
2019-02-17T17:30:15.016Z,99.90
2019-02-17T17:32:43.708Z,99.90
2019-02-17T17:35:12.317Z,99.90
2019-02-17T17:37:40.941Z,99.90
2019-02-17T17:40:17.479Z,99.90
2019-02-17T17:42:46.279Z,99.90
2019-02-17T17:45:19.252Z,99.90
2019-02-17T17:47:48.075Z,99.90
2019-02-17T17:50:16.900Z,99.90
2019-02-17T17:52:45.541Z,99.90
2019-02-17T17:55:14.334Z,99.90
2019-02-17T17:57:42.963Z,99.90
2019-02-17T18:00:17.311Z,99.90
2019-02-17T18:02:45.948Z,99.90
2019-02-17T18:05:14.732Z,99.90
2019-02-17T18:07:43.442Z,99.90
2019-02-17T18:10:16.877Z,99.90
2019-02-17T18:12:45.747Z,99.90
2019-02-17T18:15:17.379Z,99.90
2019-02-17T18:17:53.904Z,99.90
2019-02-17T18:20:16.568Z,99.90
2019-02-17T18:22:45.194Z,99.90
2019-02-17T18:25:14.261Z,99.90
2019-02-17T18:27:42.988Z,99.90
2019-02-17T18:30:21.689Z,99.90
2019-02-17T18:32:50.244Z,99.90
2019-02-17T18:35:20.435Z,99.90
2019-02-17T18:37:49.305Z,99.90
2019-02-17T18:40:19.373Z,99.90
2019-02-17T18:42:48.086Z,99.90
2019-02-17T18:45:17.076Z,99.90
2019-02-17T18:47:45.703Z,99.90
2019-02-17T18:50:15.582Z,99.90
2019-02-17T18:52:44.141Z,99.90
2019-02-17T18:55:13.500Z,99.90
2019-02-17T18:57:49.622Z,99.90
2019-02-17T19:00:18.136Z,99.90
2019-02-17T19:02:46.698Z,99.90
2019-02-17T19:05:15.328Z,99.90
2019-02-17T19:07:43.958Z,99.90
2019-02-17T19:10:14.427Z,99.90
2019-02-17T19:12:43.127Z,99.90
2019-02-17T19:15:16.606Z,99.90
2019-02-17T19:17:45.163Z,99.90
2019-02-17T19:20:25.202Z,99.90
2019-02-17T19:22:53.756Z,99.90
2019-02-17T19:25:22.396Z,99.90
2019-02-17T19:27:51.529Z,99.90
2019-02-17T19:30:20.220Z,99.90
2019-02-17T19:32:50.920Z,99.90
2019-02-17T19:35:19.551Z,99.90
2019-02-17T19:37:48.104Z,99.90
2019-02-17T19:40:16.727Z,99.90
2019-02-17T19:42:45.360Z,99.90
2019-02-17T19:45:17.634Z,99.90
2019-02-17T19:47:46.328Z,99.90
2019-02-17T19:50:15.801Z,99.90
2019-02-17T19:52:44.731Z,99.90
2019-02-17T19:55:14.199Z,99.90
2019-02-17T19:57:42.892Z,99.90
2019-02-17T20:00:14.602Z,99.90
2019-02-17T20:02:56.883Z,99.90
2019-02-17T20:05:29.888Z,99.90
2019-02-17T20:07:58.512Z,99.90
2019-02-17T20:10:27.208Z,99.90
2019-02-17T20:12:55.766Z,99.90
2019-02-17T20:15:26.033Z,99.90
2019-02-17T20:17:54.580Z,99.90
2019-02-17T20:20:23.402Z,99.90
2019-02-17T20:22:52.023Z,99.90
2019-02-17T20:25:20.657Z,99.90
2019-02-17T20:27:49.217Z,99.90
2019-02-17T20:30:17.919Z,99.90
2019-02-17T20:32:46.480Z,99.90
2019-02-17T20:35:15.100Z,99.90
2019-02-17T20:37:43.661Z,99.90
2019-02-17T20:40:16.352Z,99.90
2019-02-17T20:42:44.913Z,99.90
2019-02-17T20:45:13.671Z,99.90
2019-02-17T20:47:42.243Z,99.90
2019-02-17T20:50:13.049Z,99.90
2019-02-17T20:52:41.613Z,99.90
2019-02-17T20:55:11.685Z,99.90
2019-02-17T20:57:40.245Z,99.90
2019-02-17T21:00:22.578Z,99.90
2019-02-17T21:02:50.988Z,99.90
2019-02-17T21:05:20.024Z,99.90
2019-02-17T21:07:48.678Z,99.90
2019-02-17T21:10:17.388Z,99.90
2019-02-17T21:12:45.927Z,99.90
2019-02-17T21:15:17.570Z,99.90
2019-02-17T21:17:46.196Z,99.90
2019-02-17T21:20:15.768Z,99.90
2019-02-17T21:22:44.501Z,99.90
2019-02-17T21:25:14.164Z,99.90
2019-02-17T21:27:42.788Z,99.90
2019-02-17T21:30:13.940Z,99.90
2019-02-17T21:32:42.488Z,99.90
2019-02-17T21:35:13.928Z,99.90
2019-02-17T21:37:42.566Z,99.90
2019-02-17T21:40:12.556Z,99.90
2019-02-17T21:42:41.170Z,99.90
2019-02-17T21:45:14.691Z,99.90
2019-02-17T21:47:43.540Z,99.90
2019-02-17T21:50:16.053Z,99.90
2019-02-17T21:52:44.669Z,99.90
2019-02-17T21:55:14.578Z,99.90
2019-02-17T21:57:43.308Z,99.90
2019-02-17T22:00:18.129Z,99.90
2019-02-17T22:02:46.804Z,99.90
2019-02-17T22:05:15.436Z,99.90
2019-02-17T22:07:44.192Z,99.90
2019-02-17T22:10:14.584Z,99.90
2019-02-17T22:12:43.180Z,99.90
2019-02-17T22:15:14.351Z,99.90
2019-02-17T22:17:42.964Z,99.90
2019-02-17T22:20:12.059Z,99.90
2019-02-17T22:22:40.736Z,99.90
2019-02-17T22:25:10.135Z,99.90
2019-02-17T22:27:38.735Z,99.90
2019-02-17T22:30:10.243Z,99.90
2019-02-17T22:32:38.843Z,99.90
2019-02-17T22:35:07.473Z,99.90
2019-02-17T22:37:36.079Z,99.90
2019-02-17T22:40:12.120Z,99.90
2019-02-17T22:42:40.729Z,99.90
2019-02-17T22:45:10.529Z,99.90
2019-02-17T22:47:39.199Z,99.90
2019-02-17T22:50:12.348Z,99.90
2019-02-17T22:52:40.952Z,99.90
2019-02-17T22:55:11.516Z,99.90
2019-02-17T22:57:40.355Z,99.90
2019-02-17T23:00:30.147Z,99.90
2019-02-17T23:02:58.887Z,99.90
2019-02-17T23:05:27.508Z,99.90
2019-02-17T23:07:56.112Z,99.90
2019-02-17T23:10:24.735Z,99.90
2019-02-17T23:12:53.339Z,99.90
2019-02-17T23:15:21.964Z,99.90
2019-02-17T23:17:50.563Z,99.90
2019-02-17T23:20:19.127Z,99.90
2019-02-17T23:22:47.749Z,99.90
2019-02-17T23:25:16.453Z,99.90
2019-02-17T23:27:45.049Z,99.90
2019-02-17T23:30:13.741Z,99.90
2019-02-17T23:32:42.339Z,99.90
2019-02-17T23:35:11.144Z,99.90
2019-02-17T23:37:39.742Z,99.90
2019-02-17T23:40:11.718Z,99.90
2019-02-17T23:42:40.326Z,99.90
2019-02-17T23:45:13.199Z,99.90
2019-02-17T23:47:41.888Z,99.90
2019-02-17T23:50:11.888Z,99.90
2019-02-17T23:52:40.492Z,99.90
2019-02-17T23:55:10.388Z,99.90
2019-02-17T23:57:39.323Z,99.90
